Aviation Digital Data Service (ADDS)

Output produced by METARs form (0106 UTC 01 December 2022)
found at http://aviationweather.gov/metar/data/
 
KTCS 302335Z 0100/0124 19009KT P6SM SKC 
     FM010400 32005KT P6SM FEW250 
     FM011800 18009KT P6SM SKC